createdAt,value
2018-11-10T00:00:17.569Z,29.07
2018-11-10T00:02:46.354Z,26.57
2018-11-10T00:05:15.210Z,32.90
2018-11-10T00:07:43.792Z,27.40
2018-11-10T00:10:12.336Z,30.63
2018-11-10T00:12:40.810Z,29.67
2018-11-10T00:15:11.206Z,27.70
2018-11-10T00:17:39.626Z,28.90
2018-11-10T00:20:08.133Z,32.40
2018-11-10T00:22:37.155Z,29.77
2018-11-10T00:25:07.473Z,28.93
2018-11-10T00:27:35.942Z,33.93
2018-11-10T00:30:04.594Z,29.67
2018-11-10T00:32:32.992Z,32.83
2018-11-10T00:35:01.466Z,34.80
2018-11-10T00:37:29.888Z,34.13
2018-11-10T00:39:58.308Z,31.67
2018-11-10T00:42:26.687Z,31.13
2018-11-10T00:44:55.157Z,31.60
2018-11-10T00:47:23.612Z,34.40
2018-11-10T00:49:52.042Z,32.20
2018-11-10T00:52:20.459Z,32.13
2018-11-10T00:54:48.893Z,35.93
2018-11-10T00:57:17.360Z,29.33
2018-11-10T00:59:45.816Z,31.13
2018-11-10T01:02:14.250Z,36.00
2018-11-10T01:04:42.714Z,31.47
2018-11-10T01:07:11.123Z,28.00
2018-11-10T01:09:39.642Z,28.23
2018-11-10T01:12:08.056Z,27.80
2018-11-10T01:14:36.676Z,31.37
2018-11-10T01:17:05.416Z,29.97
2018-11-10T01:19:33.885Z,29.00
2018-11-10T01:22:02.314Z,31.73
2018-11-10T01:24:30.715Z,32.43
2018-11-10T01:26:59.112Z,30.80
2018-11-10T01:29:27.497Z,27.77
2018-11-10T01:31:55.884Z,29.17
2018-11-10T01:34:24.325Z,29.73
2018-11-10T01:36:52.758Z,28.07
2018-11-10T01:39:21.235Z,29.20
2018-11-10T01:41:49.678Z,29.60
2018-11-10T01:44:18.114Z,29.47
2018-11-10T01:46:46.534Z,29.27
2018-11-10T01:49:15.324Z,28.70
2018-11-10T01:51:43.781Z,30.27
2018-11-10T01:54:12.222Z,28.07
2018-11-10T01:56:40.676Z,28.33
2018-11-10T01:59:09.129Z,28.17
2018-11-10T02:01:37.930Z,28.07
2018-11-10T02:04:06.510Z,25.97
2018-11-10T02:06:35.329Z,29.50
2018-11-10T02:09:04.570Z,28.90
2018-11-10T02:11:33.054Z,25.67
2018-11-10T02:14:01.420Z,25.70
2018-11-10T02:16:29.791Z,29.10
2018-11-10T02:18:58.212Z,30.57
2018-11-10T02:21:26.660Z,31.87
2018-11-10T02:23:55.142Z,29.10
2018-11-10T02:26:23.598Z,28.90
2018-11-10T02:28:52.026Z,27.73
2018-11-10T02:31:20.469Z,32.70
2018-11-10T02:33:48.882Z,27.67
2018-11-10T02:36:17.378Z,26.87
2018-11-10T02:38:46.212Z,25.43
2018-11-10T02:41:14.837Z,27.97
2018-11-10T02:43:43.332Z,25.30
2018-11-10T02:46:11.820Z,29.53
2018-11-10T02:48:40.286Z,29.87
2018-11-10T02:51:08.773Z,26.30
2018-11-10T02:53:37.260Z,27.77
2018-11-10T02:56:06.160Z,26.10
2018-11-10T02:58:34.614Z,29.10
2018-11-10T03:01:03.117Z,27.43
2018-11-10T03:03:31.546Z,27.63
2018-11-10T03:05:59.996Z,28.00
2018-11-10T03:08:28.420Z,26.67
2018-11-10T03:10:56.886Z,27.93
2018-11-10T03:13:25.452Z,29.03
2018-11-10T03:15:53.872Z,26.80
2018-11-10T03:18:22.306Z,27.47
2018-11-10T03:20:50.681Z,25.07
2018-11-10T03:23:19.091Z,31.20
2018-11-10T03:25:47.507Z,26.63
2018-11-10T03:28:15.918Z,24.67
2018-11-10T03:30:44.390Z,27.73
2018-11-10T03:33:12.806Z,29.10
2018-11-10T03:35:41.308Z,32.90
2018-11-10T03:38:09.679Z,29.80
2018-11-10T03:40:38.164Z,31.13
2018-11-10T03:43:06.686Z,26.37
2018-11-10T03:45:35.189Z,32.07
2018-11-10T03:48:03.963Z,31.40
2018-11-10T03:50:32.436Z,29.70
2018-11-10T03:53:00.836Z,29.33
2018-11-10T03:55:29.259Z,28.27
2018-11-10T03:57:57.606Z,28.87
2018-11-10T04:00:26.043Z,30.97
2018-11-10T04:02:54.503Z,29.27
2018-11-10T04:05:22.977Z,29.70
2018-11-10T04:07:51.384Z,27.83
2018-11-10T04:10:19.785Z,27.73
2018-11-10T04:12:48.214Z,26.17
2018-11-10T04:15:16.677Z,27.57
2018-11-10T04:17:45.083Z,29.13
2018-11-10T04:20:13.590Z,27.17
2018-11-10T04:22:41.953Z,28.23
2018-11-10T04:25:11.336Z,25.13
2018-11-10T04:27:39.877Z,29.63
2018-11-10T04:30:09.618Z,29.37
2018-11-10T04:32:38.218Z,26.43
2018-11-10T04:35:07.327Z,26.43
2018-11-10T04:37:35.925Z,28.27
2018-11-10T04:40:04.678Z,26.47
2018-11-10T04:42:33.111Z,25.73
2018-11-10T04:45:01.546Z,26.57
2018-11-10T04:47:29.952Z,27.87
2018-11-10T04:49:58.398Z,24.90
2018-11-10T04:52:26.930Z,23.43
2018-11-10T04:54:55.475Z,23.93
2018-11-10T04:57:23.962Z,26.13
2018-11-10T04:59:52.412Z,29.23
2018-11-10T05:02:20.824Z,31.13
2018-11-10T05:04:49.278Z,30.50
2018-11-10T05:07:17.703Z,29.47
2018-11-10T05:09:46.137Z,30.70
2018-11-10T05:12:14.552Z,32.40
2018-11-10T05:14:43.010Z,29.20
2018-11-10T05:17:11.441Z,28.40
2018-11-10T05:19:39.964Z,30.43
2018-11-10T05:22:08.340Z,30.13
2018-11-10T05:24:36.765Z,30.17
2018-11-10T05:27:05.553Z,30.80
2018-11-10T05:29:34.023Z,33.80
2018-11-10T05:32:02.482Z,28.57
2018-11-10T05:34:30.907Z,28.30
2018-11-10T05:36:59.383Z,24.80
2018-11-10T05:39:27.802Z,25.53
2018-11-10T05:41:56.260Z,24.50
2018-11-10T05:44:24.806Z,23.93
2018-11-10T05:46:53.347Z,24.47
2018-11-10T05:49:21.759Z,23.97
2018-11-10T05:51:50.132Z,24.43
2018-11-10T05:54:18.612Z,24.60
2018-11-10T05:56:47.028Z,26.03
2018-11-10T05:59:15.454Z,27.13
2018-11-10T06:01:43.894Z,26.50
2018-11-10T06:04:12.350Z,28.10
2018-11-10T06:06:40.800Z,28.47
2018-11-10T06:09:11.039Z,25.00
2018-11-10T06:11:40.283Z,24.50
2018-11-10T06:14:09.067Z,23.60
2018-11-10T06:16:37.513Z,24.17
2018-11-10T06:19:06.474Z,22.97
2018-11-10T06:21:34.946Z,24.13
2018-11-10T06:24:03.477Z,24.40
2018-11-10T06:26:31.949Z,28.83
2018-11-10T06:29:00.369Z,25.27
2018-11-10T06:31:28.792Z,29.30
2018-11-10T06:33:57.263Z,25.50
2018-11-10T06:36:25.893Z,24.83
2018-11-10T06:38:54.374Z,22.23
2018-11-10T06:41:23.231Z,22.27
2018-11-10T06:43:51.918Z,23.83
2018-11-10T06:46:20.366Z,18.87
2018-11-10T06:48:48.789Z,23.30
2018-11-10T06:51:17.298Z,22.13
2018-11-10T06:53:45.827Z,19.07
2018-11-10T06:56:14.230Z,23.90
2018-11-10T06:58:42.698Z,22.30
2018-11-10T07:01:11.169Z,20.67
2018-11-10T07:03:40.012Z,20.17
2018-11-10T07:06:08.544Z,20.03
2018-11-10T07:08:36.971Z,24.40
2018-11-10T07:11:05.824Z,18.70
2018-11-10T07:13:34.308Z,17.57
2018-11-10T07:16:02.812Z,21.47
2018-11-10T07:18:31.313Z,19.23
2018-11-10T07:20:59.764Z,17.27
2018-11-10T07:23:28.281Z,18.47
2018-11-10T07:25:56.814Z,18.03
2018-11-10T07:28:26.969Z,19.10
2018-11-10T07:30:55.467Z,17.60
2018-11-10T07:33:23.914Z,18.33
2018-11-10T07:35:52.387Z,21.00
2018-11-10T07:38:20.887Z,21.70
2018-11-10T07:40:49.361Z,17.90
2018-11-10T07:43:17.769Z,19.57
2018-11-10T07:45:47.174Z,20.93
2018-11-10T07:48:15.633Z,19.63
2018-11-10T07:50:44.186Z,22.20
2018-11-10T07:53:12.708Z,23.23
2018-11-10T07:55:41.239Z,22.23
2018-11-10T07:58:09.805Z,22.90
2018-11-10T08:00:38.249Z,22.03
2018-11-10T08:03:07.562Z,19.27
2018-11-10T08:05:36.044Z,22.23
2018-11-10T08:08:04.530Z,19.20
2018-11-10T08:10:33.023Z,20.93
2018-11-10T08:13:01.448Z,20.33
2018-11-10T08:15:29.927Z,19.57
2018-11-10T08:17:58.373Z,20.40
2018-11-10T08:20:26.776Z,21.67
2018-11-10T08:22:55.268Z,20.63
2018-11-10T08:25:23.750Z,18.47
2018-11-10T08:27:52.237Z,19.13
2018-11-10T08:30:20.759Z,19.27
2018-11-10T08:32:49.209Z,20.47
2018-11-10T08:35:17.714Z,19.17
2018-11-10T08:37:46.434Z,21.60
2018-11-10T08:40:16.689Z,18.03
2018-11-10T08:42:45.190Z,17.33
2018-11-10T08:45:15.003Z,18.30
2018-11-10T08:47:44.033Z,18.03
2018-11-10T08:50:13.765Z,18.63
2018-11-10T08:52:43.462Z,19.47
2018-11-10T08:55:12.805Z,16.67
2018-11-10T08:57:41.927Z,19.63
2018-11-10T09:00:11.187Z,16.87
2018-11-10T09:02:39.777Z,17.73
2018-11-10T09:05:09.890Z,15.70
2018-11-10T09:07:38.329Z,16.30
2018-11-10T09:10:10.408Z,16.27
2018-11-10T09:12:38.965Z,16.13
2018-11-10T09:15:09.688Z,16.13
2018-11-10T09:17:38.393Z,15.27
2018-11-10T09:20:10.510Z,18.67
2018-11-10T09:22:39.003Z,18.03
2018-11-10T09:25:10.419Z,17.87
2018-11-10T09:27:38.931Z,16.37
2018-11-10T09:30:08.460Z,18.57
2018-11-10T09:32:36.902Z,19.33
2018-11-10T09:35:06.185Z,16.70
2018-11-10T09:37:34.685Z,15.23
2018-11-10T09:40:03.219Z,15.70
2018-11-10T09:42:31.866Z,16.70
2018-11-10T09:45:00.306Z,14.83
2018-11-10T09:47:28.723Z,15.87
2018-11-10T09:49:57.187Z,13.47
2018-11-10T09:52:25.870Z,14.10
2018-11-10T09:54:54.349Z,9.83
2018-11-10T09:57:22.925Z,12.70
2018-11-10T09:59:51.432Z,12.33
2018-11-10T10:02:20.325Z,11.83
2018-11-10T10:04:48.564Z,12.23
2018-11-10T10:07:17.015Z,13.33
2018-11-10T10:09:45.409Z,14.70
2018-11-10T10:12:13.930Z,15.17
2018-11-10T10:14:42.324Z,14.13
2018-11-10T10:17:10.723Z,17.27
2018-11-10T10:19:39.410Z,13.00
2018-11-10T10:22:07.847Z,14.17
2018-11-10T10:24:36.285Z,14.03
2018-11-10T10:27:04.789Z,14.73
2018-11-10T10:29:33.230Z,15.57
2018-11-10T10:32:01.622Z,17.63
2018-11-10T10:34:30.416Z,17.67
2018-11-10T10:36:59.015Z,18.30
2018-11-10T10:39:27.569Z,19.57
2018-11-10T10:41:56.235Z,17.30
2018-11-10T10:44:24.681Z,19.00
2018-11-10T10:46:53.184Z,16.93
2018-11-10T10:49:21.641Z,17.90
2018-11-10T10:51:50.124Z,17.20
2018-11-10T10:54:18.572Z,16.63
2018-11-10T10:56:47.387Z,19.43
2018-11-10T10:59:16.047Z,19.80
2018-11-10T11:01:49.793Z,20.70
2018-11-10T11:04:23.530Z,19.63
2018-11-10T11:06:52.013Z,18.37
2018-11-10T11:09:20.449Z,24.07
2018-11-10T11:11:49.125Z,21.37
2018-11-10T11:14:17.528Z,20.93
2018-11-10T11:16:45.954Z,20.70
2018-11-10T11:19:14.393Z,21.20
2018-11-10T11:21:42.907Z,23.37
2018-11-10T11:24:11.310Z,19.10
2018-11-10T11:26:39.776Z,19.33
2018-11-10T11:29:08.288Z,20.70
2018-11-10T11:31:36.935Z,19.97
2018-11-10T11:34:05.722Z,19.70
2018-11-10T11:36:34.270Z,22.33
2018-11-10T11:39:02.758Z,20.47
2018-11-10T11:41:31.469Z,20.20
2018-11-10T11:43:59.819Z,16.77
2018-11-10T11:46:28.253Z,19.53
2018-11-10T11:48:56.738Z,20.87
2018-11-10T11:51:25.178Z,21.07
2018-11-10T11:53:53.633Z,19.43
2018-11-10T11:56:22.041Z,24.47
2018-11-10T11:58:50.490Z,23.00
2018-11-10T12:01:19.080Z,21.73
2018-11-10T12:03:47.512Z,21.57
2018-11-10T12:06:15.901Z,22.03
2018-11-10T12:08:44.424Z,19.67
2018-11-10T12:11:12.861Z,19.77
2018-11-10T12:13:41.291Z,18.37
2018-11-10T12:16:10.240Z,18.60
2018-11-10T12:18:38.667Z,18.73
2018-11-10T12:21:07.184Z,19.23
2018-11-10T12:23:35.738Z,19.27
2018-11-10T12:26:04.192Z,17.90
2018-11-10T12:28:32.696Z,18.30
2018-11-10T12:31:01.161Z,19.93
2018-11-10T12:33:29.579Z,19.50
2018-11-10T12:35:58.044Z,16.67
2018-11-10T12:38:26.537Z,16.27
2018-11-10T12:40:54.959Z,17.63
2018-11-10T12:43:23.386Z,18.90
2018-11-10T12:45:51.856Z,17.60
2018-11-10T12:48:20.335Z,18.40
2018-11-10T12:50:49.361Z,15.83
2018-11-10T12:53:17.811Z,18.87
2018-11-10T12:55:46.164Z,17.80
2018-11-10T12:58:14.597Z,19.57
2018-11-10T13:00:42.991Z,18.47
2018-11-10T13:03:11.396Z,19.77
2018-11-10T13:05:39.840Z,20.13
2018-11-10T13:08:08.369Z,18.57
2018-11-10T13:10:36.939Z,19.87
2018-11-10T13:13:05.866Z,18.20
2018-11-10T13:15:34.314Z,19.80
2018-11-10T13:18:02.801Z,18.00
2018-11-10T13:20:31.358Z,18.50
2018-11-10T13:22:59.864Z,19.83
2018-11-10T13:25:28.362Z,21.50
2018-11-10T13:27:56.834Z,18.83
2018-11-10T13:30:25.223Z,24.50
2018-11-10T13:32:53.653Z,22.93
2018-11-10T13:35:22.131Z,17.43
2018-11-10T13:37:50.676Z,19.47
2018-11-10T13:40:19.236Z,18.83
2018-11-10T13:42:47.604Z,20.40
2018-11-10T13:45:16.039Z,20.07
2018-11-10T13:47:44.491Z,20.17
2018-11-10T13:50:13.103Z,20.17
2018-11-10T13:52:42.326Z,21.50
2018-11-10T13:55:11.032Z,18.97
2018-11-10T13:57:39.781Z,19.03
2018-11-10T14:00:13.160Z,19.37
2018-11-10T14:02:41.843Z,19.17
2018-11-10T14:05:10.671Z,18.80
2018-11-10T14:07:39.062Z,16.63
2018-11-10T14:10:09.306Z,29.50
2018-11-10T14:12:37.820Z,22.97
2018-11-10T14:15:06.510Z,19.83
2018-11-10T14:17:34.939Z,21.00
2018-11-10T14:20:03.362Z,18.33
2018-11-10T14:22:31.702Z,20.27
2018-11-10T14:25:00.092Z,20.87
2018-11-10T14:27:28.541Z,20.63
2018-11-10T14:29:57.018Z,18.77
2018-11-10T14:32:25.477Z,19.23
2018-11-10T14:34:53.891Z,19.23
2018-11-10T14:37:22.298Z,19.97
2018-11-10T14:39:50.733Z,19.77
2018-11-10T14:42:19.201Z,18.33
2018-11-10T14:44:47.654Z,17.53
2018-11-10T14:47:16.138Z,19.90
2018-11-10T14:49:44.504Z,18.27
2018-11-10T14:52:12.982Z,16.63
2018-11-10T14:54:41.429Z,17.30
2018-11-10T14:57:09.904Z,16.97
2018-11-10T14:59:38.348Z,16.40
2018-11-10T15:02:06.775Z,16.47
2018-11-10T15:04:35.282Z,17.10
2018-11-10T15:07:03.779Z,16.10
2018-11-10T15:09:32.194Z,17.47
2018-11-10T15:12:00.819Z,16.10
2018-11-10T15:14:29.270Z,16.80
2018-11-10T15:16:57.722Z,15.30
2018-11-10T15:19:26.103Z,15.50
2018-11-10T15:21:54.550Z,14.50
2018-11-10T15:24:22.942Z,14.57
2018-11-10T15:26:51.601Z,15.03
2018-11-10T15:29:20.072Z,14.60
2018-11-10T15:31:48.472Z,15.07
2018-11-10T15:34:16.901Z,16.50
2018-11-10T15:36:45.330Z,16.07
2018-11-10T15:39:13.813Z,16.33
2018-11-10T15:41:42.250Z,16.33
2018-11-10T15:44:11.042Z,15.23
2018-11-10T15:46:39.416Z,94.00
2018-11-10T15:49:07.900Z,17.47
2018-11-10T15:51:36.340Z,10.90
2018-11-10T15:54:05.149Z,12.30
2018-11-10T15:56:33.612Z,14.70
2018-11-10T15:59:02.061Z,12.00
2018-11-10T16:01:30.552Z,11.10
2018-11-10T16:03:59.023Z,11.43
2018-11-10T16:06:27.448Z,9.40
2018-11-10T16:08:55.833Z,9.40
2018-11-10T16:11:24.480Z,9.03
2018-11-10T16:13:53.235Z,10.17
2018-11-10T16:16:21.701Z,13.10
2018-11-10T16:18:50.548Z,12.50
2018-11-10T16:21:19.549Z,12.67
2018-11-10T16:23:48.003Z,10.83
2018-11-10T16:26:16.435Z,8.67
2018-11-10T16:28:44.850Z,10.47
2018-11-10T16:31:13.447Z,10.83
2018-11-10T16:33:41.835Z,10.40
2018-11-10T16:36:10.299Z,10.73
2018-11-10T16:38:38.769Z,10.43
2018-11-10T16:41:07.223Z,11.30
2018-11-10T16:43:35.626Z,11.27
2018-11-10T16:46:04.172Z,9.17
2018-11-10T16:48:32.635Z,11.00
2018-11-10T16:51:01.112Z,10.97
2018-11-10T16:53:29.590Z,10.73
2018-11-10T16:55:58.020Z,11.03
2018-11-10T16:58:26.488Z,9.03
2018-11-10T17:00:54.898Z,10.97
2018-11-10T17:03:23.394Z,9.93
2018-11-10T17:05:51.892Z,9.43
2018-11-10T17:08:20.532Z,9.07
2018-11-10T17:10:49.750Z,8.17
2018-11-10T17:13:18.199Z,7.77
2018-11-10T17:15:46.811Z,9.93
2018-11-10T17:18:15.162Z,7.63
2018-11-10T17:20:43.647Z,8.37
2018-11-10T17:23:12.236Z,11.00
2018-11-10T17:25:42.335Z,8.50
2018-11-10T17:28:10.827Z,8.70
2018-11-10T17:30:39.380Z,9.67
2018-11-10T17:33:07.791Z,9.80
2018-11-10T17:35:36.405Z,15.90
2018-11-10T17:38:04.991Z,16.30
2018-11-10T17:40:33.553Z,15.43
2018-11-10T17:43:02.008Z,11.30
2018-11-10T17:45:30.422Z,15.67
2018-11-10T17:47:58.817Z,14.70
2018-11-10T17:50:27.259Z,14.33
2018-11-10T17:52:55.703Z,12.53
2018-11-10T17:55:24.128Z,11.40
2018-11-10T17:57:52.637Z,12.03
2018-11-10T18:00:21.234Z,11.83
2018-11-10T18:02:49.644Z,11.53
2018-11-10T18:05:18.136Z,10.30
2018-11-10T18:07:46.603Z,8.87
2018-11-10T18:10:16.372Z,10.00
2018-11-10T18:12:45.751Z,9.37
2018-11-10T18:15:14.795Z,8.27
2018-11-10T18:17:43.746Z,9.07
2018-11-10T18:20:13.621Z,10.77
2018-11-10T18:22:42.894Z,10.23
2018-11-10T18:25:11.407Z,8.17
2018-11-10T18:27:40.037Z,11.90
2018-11-10T18:30:10.596Z,11.47
2018-11-10T18:32:39.086Z,8.70
2018-11-10T18:35:08.350Z,9.57
2018-11-10T18:37:36.806Z,9.20
2018-11-10T18:40:05.453Z,10.27
2018-11-10T18:42:34.013Z,10.10
2018-11-10T18:45:02.468Z,10.77
2018-11-10T18:47:30.931Z,11.73
2018-11-10T18:49:59.381Z,10.93
2018-11-10T18:52:27.848Z,11.33
2018-11-10T18:54:56.397Z,10.90
2018-11-10T18:57:31.711Z,11.10
2018-11-10T19:00:00.196Z,13.40
2018-11-10T19:02:28.652Z,13.67
2018-11-10T19:04:57.507Z,12.13
2018-11-10T19:07:25.969Z,14.57
2018-11-10T19:09:54.472Z,14.10
2018-11-10T19:12:22.902Z,13.50
2018-11-10T19:14:51.352Z,15.50
2018-11-10T19:17:19.776Z,15.50
2018-11-10T19:19:48.184Z,13.47
2018-11-10T19:22:16.624Z,13.10
2018-11-10T19:24:44.983Z,13.37
2018-11-10T19:27:13.506Z,13.37
2018-11-10T19:29:41.952Z,16.07
2018-11-10T19:32:10.366Z,12.90
2018-11-10T19:34:38.994Z,14.10
2018-11-10T19:37:07.442Z,13.00
2018-11-10T19:39:35.808Z,15.93
2018-11-10T19:42:04.380Z,14.07
2018-11-10T19:44:32.896Z,14.63
2018-11-10T19:47:01.485Z,14.37
2018-11-10T19:49:29.933Z,13.27
2018-11-10T19:51:58.451Z,17.00
2018-11-10T19:54:27.031Z,16.00
2018-11-10T19:56:55.522Z,13.80
2018-11-10T19:59:23.969Z,14.43
2018-11-10T20:01:52.409Z,15.63
2018-11-10T20:04:20.860Z,15.27
2018-11-10T20:06:49.295Z,15.50
2018-11-10T20:09:17.895Z,13.50
2018-11-10T20:11:46.322Z,13.83
2018-11-10T20:14:14.806Z,14.23
2018-11-10T20:16:43.420Z,13.90
2018-11-10T20:19:11.908Z,12.93
2018-11-10T20:21:40.380Z,14.57
2018-11-10T20:24:08.846Z,14.33
2018-11-10T20:26:37.223Z,15.07
2018-11-10T20:29:06.036Z,13.57
2018-11-10T20:31:34.475Z,14.13
2018-11-10T20:34:03.032Z,21.57
2018-11-10T20:36:31.492Z,15.77
2018-11-10T20:38:59.960Z,18.40
2018-11-10T20:41:28.566Z,14.07
2018-11-10T20:43:57.019Z,15.00
2018-11-10T20:46:25.486Z,16.23
2018-11-10T20:48:53.958Z,16.37
2018-11-10T20:51:22.453Z,26.07
2018-11-10T20:53:50.870Z,17.67
2018-11-10T20:56:19.294Z,13.27
2018-11-10T20:58:47.726Z,13.40
2018-11-10T21:01:16.140Z,15.00
2018-11-10T21:03:44.624Z,14.80
2018-11-10T21:06:13.096Z,15.10
2018-11-10T21:08:41.588Z,18.97
2018-11-10T21:11:10.042Z,14.77
2018-11-10T21:13:38.461Z,16.37
2018-11-10T21:16:06.888Z,18.47
2018-11-10T21:18:35.294Z,18.33
2018-11-10T21:21:03.698Z,21.07
2018-11-10T21:23:32.177Z,17.27
2018-11-10T21:26:00.777Z,16.90
2018-11-10T21:28:29.273Z,15.50
2018-11-10T21:30:57.886Z,16.40
2018-11-10T21:33:26.446Z,16.87
2018-11-10T21:35:55.032Z,18.13
2018-11-10T21:38:23.510Z,19.30
2018-11-10T21:40:51.904Z,18.80
2018-11-10T21:43:20.338Z,20.70
2018-11-10T21:45:48.798Z,20.37
2018-11-10T21:48:17.246Z,21.40
2018-11-10T21:50:45.625Z,23.60
2018-11-10T21:53:14.040Z,23.73
2018-11-10T21:55:42.455Z,28.27
2018-11-10T21:58:10.886Z,24.03
2018-11-10T22:00:39.515Z,23.63
2018-11-10T22:03:07.988Z,24.80
2018-11-10T22:05:36.505Z,28.63
2018-11-10T22:08:05.761Z,27.77
2018-11-10T22:10:34.188Z,26.20
2018-11-10T22:13:02.590Z,24.13
2018-11-10T22:15:31.037Z,26.23
2018-11-10T22:17:59.461Z,23.17
2018-11-10T22:20:27.838Z,23.37
2018-11-10T22:22:56.322Z,36.53
2018-11-10T22:25:24.841Z,26.07
2018-11-10T22:27:53.987Z,24.63
2018-11-10T22:30:22.992Z,29.13
2018-11-10T22:32:51.531Z,26.83
2018-11-10T22:35:20.099Z,24.97
2018-11-10T22:37:48.503Z,23.37
2018-11-10T22:40:18.413Z,23.37
2018-11-10T22:42:47.079Z,26.50
2018-11-10T22:45:16.724Z,26.57
2018-11-10T22:47:45.188Z,27.70
2018-11-10T22:50:15.920Z,29.93
2018-11-10T22:52:44.553Z,27.80
2018-11-10T22:55:13.038Z,32.30
2018-11-10T22:57:41.633Z,30.70
2018-11-10T23:00:15.136Z,31.90
2018-11-10T23:02:45.203Z,35.23
2018-11-10T23:05:13.640Z,40.77
2018-11-10T23:07:42.067Z,32.63
2018-11-10T23:10:10.936Z,26.17
2018-11-10T23:12:39.343Z,25.90
2018-11-10T23:15:07.889Z,26.33
2018-11-10T23:17:36.388Z,25.00
2018-11-10T23:20:05.561Z,23.27
2018-11-10T23:22:33.982Z,24.90
2018-11-10T23:25:02.474Z,28.77
2018-11-10T23:27:30.905Z,29.03
2018-11-10T23:29:59.448Z,27.53
2018-11-10T23:32:27.886Z,36.90
2018-11-10T23:34:56.382Z,28.57
2018-11-10T23:37:24.995Z,28.87
2018-11-10T23:39:53.368Z,26.57
2018-11-10T23:42:21.830Z,28.60
2018-11-10T23:44:50.350Z,23.70
2018-11-10T23:47:18.777Z,27.97
2018-11-10T23:49:47.226Z,26.60
2018-11-10T23:52:15.705Z,27.10
2018-11-10T23:54:44.205Z,26.90
2018-11-10T23:57:12.600Z,32.43
2018-11-10T23:59:41.049Z,26.57
